sensor_id;sensor_type;location;lat;lon;timestamp;pressure;altitude;pressure_sealevel;temperature;humidity
60170;BME280;46042;49.444;6.862;2023-07-31T00:01:34;98601.03;;;16.76;75.78
60170;BME280;46042;49.444;6.862;2023-07-31T00:04:00;98594.84;;;16.76;76.58
60170;BME280;46042;49.444;6.862;2023-07-31T00:06:27;98597.69;;;16.74;76.55
60170;BME280;46042;49.444;6.862;2023-07-31T00:08:54;98595.16;;;16.73;77.76
60170;BME280;46042;49.444;6.862;2023-07-31T00:11:20;98596.13;;;16.72;76.97
60170;BME280;46042;49.444;6.862;2023-07-31T00:13:47;98590.41;;;16.67;77.18
60170;BME280;46042;49.444;6.862;2023-07-31T00:16:14;98592.91;;;16.68;77.69
60170;BME280;46042;49.444;6.862;2023-07-31T00:18:41;98602.03;;;16.66;77.20
60170;BME280;46042;49.444;6.862;2023-07-31T00:21:08;98597.53;;;16.66;77.36
60170;BME280;46042;49.444;6.862;2023-07-31T00:23:34;98601.59;;;16.60;78.29
60170;BME280;46042;49.444;6.862;2023-07-31T00:26:01;98598.53;;;16.55;78.48
60170;BME280;46042;49.444;6.862;2023-07-31T00:28:27;98602.84;;;16.56;78.22
60170;BME280;46042;49.444;6.862;2023-07-31T00:30:55;98596.84;;;16.54;78.41
60170;BME280;46042;49.444;6.862;2023-07-31T00:33:22;98600.38;;;16.55;78.27
60170;BME280;46042;49.444;6.862;2023-07-31T00:35:48;98603.28;;;16.52;78.23
60170;BME280;46042;49.444;6.862;2023-07-31T00:38:15;98601.59;;;16.50;78.93
60170;BME280;46042;49.444;6.862;2023-07-31T00:40:42;98600.78;;;16.50;78.52
60170;BME280;46042;49.444;6.862;2023-07-31T00:43:09;98595.28;;;16.52;79.42
60170;BME280;46042;49.444;6.862;2023-07-31T00:45:36;98599.09;;;16.49;79.05
60170;BME280;46042;49.444;6.862;2023-07-31T00:48:02;98593.50;;;16.42;79.64
60170;BME280;46042;49.444;6.862;2023-07-31T00:50:29;98594.47;;;16.41;79.90
60170;BME280;46042;49.444;6.862;2023-07-31T00:52:56;98593.09;;;16.37;79.72
60170;BME280;46042;49.444;6.862;2023-07-31T00:55:23;98587.63;;;16.39;79.54
60170;BME280;46042;49.444;6.862;2023-07-31T00:57:50;98588.59;;;16.38;80.00
60170;BME280;46042;49.444;6.862;2023-07-31T01:00:19;98575.88;;;16.41;79.55
60170;BME280;46042;49.444;6.862;2023-07-31T01:02:45;98574.03;;;16.42;79.82
60170;BME280;46042;49.444;6.862;2023-07-31T01:05:12;98572.22;;;16.42;79.29
60170;BME280;46042;49.444;6.862;2023-07-31T01:07:52;98576.97;;;16.39;80.97
60170;BME280;46042;49.444;6.862;2023-07-31T01:10:34;98565.94;;;16.33;81.29
60170;BME280;46042;49.444;6.862;2023-07-31T01:13:03;98562.88;;;16.28;80.90
60170;BME280;46042;49.444;6.862;2023-07-31T01:15:29;98562.13;;;16.26;80.74
60170;BME280;46042;49.444;6.862;2023-07-31T01:17:56;98555.44;;;16.32;80.75
60170;BME280;46042;49.444;6.862;2023-07-31T01:20:25;98549.41;;;16.30;80.95
60170;BME280;46042;49.444;6.862;2023-07-31T01:28:56;98547.63;;;16.20;81.55
60170;BME280;46042;49.444;6.862;2023-07-31T01:31:29;98547.47;;;16.22;81.44
60170;BME280;46042;49.444;6.862;2023-07-31T01:34:00;98542.16;;;16.22;81.56
60170;BME280;46042;49.444;6.862;2023-07-31T01:36:27;98545.78;;;16.21;81.72
60170;BME280;46042;49.444;6.862;2023-07-31T01:38:58;98544.50;;;16.25;81.83
60170;BME280;46042;49.444;6.862;2023-07-31T01:41:27;98535.72;;;16.15;81.99
60170;BME280;46042;49.444;6.862;2023-07-31T01:43:53;98534.03;;;16.24;81.65
60170;BME280;46042;49.444;6.862;2023-07-31T01:46:20;98532.09;;;16.26;82.48
60170;BME280;46042;49.444;6.862;2023-07-31T01:48:47;98530.81;;;16.20;81.99
60170;BME280;46042;49.444;6.862;2023-07-31T01:51:13;98531.94;;;16.17;82.58
60170;BME280;46042;49.444;6.862;2023-07-31T01:53:40;98530.00;;;16.19;84.62
60170;BME280;46042;49.444;6.862;2023-07-31T01:56:07;98528.31;;;16.18;83.19
60170;BME280;46042;49.444;6.862;2023-07-31T01:58:33;98524.81;;;16.18;82.98
60170;BME280;46042;49.444;6.862;2023-07-31T02:01:00;98526.63;;;16.17;82.42
60170;BME280;46042;49.444;6.862;2023-07-31T02:03:27;98524.81;;;16.18;83.05
60170;BME280;46042;49.444;6.862;2023-07-31T02:05:54;98531.66;;;16.20;83.47
60170;BME280;46042;49.444;6.862;2023-07-31T02:08:20;98524.13;;;16.16;83.74
60170;BME280;46042;49.444;6.862;2023-07-31T02:10:47;98520.06;;;16.21;83.62
60170;BME280;46042;49.444;6.862;2023-07-31T02:13:14;98516.41;;;16.23;84.41
60170;BME280;46042;49.444;6.862;2023-07-31T02:15:40;98515.44;;;16.24;85.24
60170;BME280;46042;49.444;6.862;2023-07-31T02:18:07;98518.09;;;16.24;84.87
60170;BME280;46042;49.444;6.862;2023-07-31T02:20:34;98514.59;;;16.23;84.74
60170;BME280;46042;49.444;6.862;2023-07-31T02:23:02;98515.44;;;16.24;87.89
60170;BME280;46042;49.444;6.862;2023-07-31T02:25:28;98510.25;;;16.22;86.99
60170;BME280;46042;49.444;6.862;2023-07-31T02:27:55;98504.53;;;16.17;86.31
60170;BME280;46042;49.444;6.862;2023-07-31T02:30:22;98507.47;;;16.14;86.37
60170;BME280;46042;49.444;6.862;2023-07-31T02:32:48;98511.94;;;16.13;86.39
60170;BME280;46042;49.444;6.862;2023-07-31T02:35:15;98513.47;;;16.16;88.84
60170;BME280;46042;49.444;6.862;2023-07-31T02:37:42;98509.69;;;16.09;91.34
60170;BME280;46042;49.444;6.862;2023-07-31T02:40:09;98523.69;;;16.11;95.38
60170;BME280;46042;49.444;6.862;2023-07-31T02:42:36;98507.75;;;16.11;95.83
60170;BME280;46042;49.444;6.862;2023-07-31T02:45:03;98515.00;;;16.09;97.72
60170;BME280;46042;49.444;6.862;2023-07-31T02:47:30;98515.00;;;16.09;98.14
60170;BME280;46042;49.444;6.862;2023-07-31T02:49:57;98511.25;;;16.01;97.38
60170;BME280;46042;49.444;6.862;2023-07-31T02:52:25;98516.84;;;15.98;96.99
60170;BME280;46042;49.444;6.862;2023-07-31T02:54:52;98509.69;;;15.99;97.54
60170;BME280;46042;49.444;6.862;2023-07-31T02:57:18;98518.78;;;15.96;95.72
60170;BME280;46042;49.444;6.862;2023-07-31T02:59:45;98516.53;;;15.91;95.32
60170;BME280;46042;49.444;6.862;2023-07-31T03:02:12;98512.09;;;15.92;94.85
60170;BME280;46042;49.444;6.862;2023-07-31T03:04:39;98513.44;;;15.86;95.46
60170;BME280;46042;49.444;6.862;2023-07-31T03:07:06;98512.75;;;15.84;96.35
60170;BME280;46042;49.444;6.862;2023-07-31T03:09:33;98505.88;;;15.82;96.57
60170;BME280;46042;49.444;6.862;2023-07-31T03:11:59;98505.47;;;15.76;94.84
60170;BME280;46042;49.444;6.862;2023-07-31T03:14:26;98505.72;;;15.73;95.86
60170;BME280;46042;49.444;6.862;2023-07-31T03:16:53;98500.00;;;15.68;95.35
60170;BME280;46042;49.444;6.862;2023-07-31T03:19:20;98507.25;;;15.66;95.32
60170;BME280;46042;49.444;6.862;2023-07-31T03:21:47;98498.31;;;15.67;99.60
60170;BME280;46042;49.444;6.862;2023-07-31T03:24:13;98504.88;;;15.63;99.61
60170;BME280;46042;49.444;6.862;2023-07-31T03:26:40;98504.31;;;15.59;98.49
60170;BME280;46042;49.444;6.862;2023-07-31T03:29:08;98506.16;;;15.59;100.00
60170;BME280;46042;49.444;6.862;2023-07-31T03:31:35;98502.91;;;15.55;98.59
60170;BME280;46042;49.444;6.862;2023-07-31T03:34:02;98503.72;;;15.56;99.68
60170;BME280;46042;49.444;6.862;2023-07-31T03:36:28;98499.69;;;15.52;98.10
60170;BME280;46042;49.444;6.862;2023-07-31T03:38:55;98504.28;;;15.49;98.83
60170;BME280;46042;49.444;6.862;2023-07-31T03:41:22;98509.88;;;15.46;98.56
60170;BME280;46042;49.444;6.862;2023-07-31T03:43:50;98500.38;;;15.44;97.99
60170;BME280;46042;49.444;6.862;2023-07-31T03:46:18;98494.75;;;15.37;99.22
60170;BME280;46042;49.444;6.862;2023-07-31T03:48:45;98493.06;;;15.36;99.33
60170;BME280;46042;49.444;6.862;2023-07-31T03:51:12;98502.41;;;15.30;98.30
60170;BME280;46042;49.444;6.862;2023-07-31T03:53:39;98492.94;;;15.28;97.88
60170;BME280;46042;49.444;6.862;2023-07-31T03:56:06;98487.91;;;15.25;97.42
60170;BME280;46042;49.444;6.862;2023-07-31T03:58:32;98490.66;;;15.23;97.89
60170;BME280;46042;49.444;6.862;2023-07-31T04:00:59;98478.50;;;15.20;98.06
60170;BME280;46042;49.444;6.862;2023-07-31T04:03:27;98486.72;;;15.07;98.30
60170;BME280;46042;49.444;6.862;2023-07-31T04:05:54;98478.88;;;15.06;99.13
60170;BME280;46042;49.444;6.862;2023-07-31T04:08:22;98474.41;;;15.06;98.15
60170;BME280;46042;49.444;6.862;2023-07-31T04:10:49;98474.53;;;15.05;99.13
60170;BME280;46042;49.444;6.862;2023-07-31T04:13:16;98467.72;;;15.02;98.54
60170;BME280;46042;49.444;6.862;2023-07-31T04:15:48;98475.19;;;14.97;98.67
60170;BME280;46042;49.444;6.862;2023-07-31T04:18:15;98477.75;;;14.99;99.56
60170;BME280;46042;49.444;6.862;2023-07-31T04:20:42;98478.59;;;14.99;98.11
60170;BME280;46042;49.444;6.862;2023-07-31T04:23:09;98473.28;;;14.99;98.11
60170;BME280;46042;49.444;6.862;2023-07-31T04:25:35;98473.84;;;15.03;98.37
60170;BME280;46042;49.444;6.862;2023-07-31T04:28:02;98476.38;;;15.04;97.87
60170;BME280;46042;49.444;6.862;2023-07-31T04:30:29;98477.78;;;15.08;98.53
60170;BME280;46042;49.444;6.862;2023-07-31T04:32:56;98476.94;;;15.08;99.46
60170;BME280;46042;49.444;6.862;2023-07-31T04:35:22;98486.16;;;15.14;99.47
60170;BME280;46042;49.444;6.862;2023-07-31T04:37:49;98473.03;;;15.12;99.20
60170;BME280;46042;49.444;6.862;2023-07-31T04:40:16;98473.88;;;15.13;99.05
60170;BME280;46042;49.444;6.862;2023-07-31T04:42:42;98478.19;;;15.14;97.89
60170;BME280;46042;49.444;6.862;2023-07-31T04:45:09;98479.75;;;15.16;97.72
60170;BME280;46042;49.444;6.862;2023-07-31T04:47:36;98478.94;;;15.16;97.03
60170;BME280;46042;49.444;6.862;2023-07-31T04:50:03;98480.03;;;15.13;97.67
60170;BME280;46042;49.444;6.862;2023-07-31T04:52:29;98480.16;;;15.12;97.96
60170;BME280;46042;49.444;6.862;2023-07-31T04:54:56;98477.81;;;15.18;98.34
60170;BME280;46042;49.444;6.862;2023-07-31T04:57:23;98476.69;;;15.21;97.20
60170;BME280;46042;49.444;6.862;2023-07-31T04:59:49;98479.19;;;15.22;96.61
60170;BME280;46042;49.444;6.862;2023-07-31T05:02:17;98478.38;;;15.22;97.91
60170;BME280;46042;49.444;6.862;2023-07-31T05:04:43;98465.00;;;15.24;97.85
60170;BME280;46042;49.444;6.862;2023-07-31T05:07:10;98469.75;;;15.30;97.96
60170;BME280;46042;49.444;6.862;2023-07-31T05:09:37;98465.72;;;15.35;97.65
60170;BME280;46042;49.444;6.862;2023-07-31T05:12:06;98458.44;;;15.38;97.36
60170;BME280;46042;49.444;6.862;2023-07-31T05:14:33;98460.81;;;15.41;97.40
60170;BME280;46042;49.444;6.862;2023-07-31T05:17:00;98458.75;;;15.44;97.63
60170;BME280;46042;49.444;6.862;2023-07-31T05:19:27;98449.22;;;15.42;96.78
60170;BME280;46042;49.444;6.862;2023-07-31T05:21:53;98446.28;;;15.45;96.87
60170;BME280;46042;49.444;6.862;2023-07-31T05:24:20;98452.88;;;15.50;100.00
60170;BME280;46042;49.444;6.862;2023-07-31T05:26:47;98462.50;;;15.52;100.00
60170;BME280;46042;49.444;6.862;2023-07-31T05:29:14;98460.13;;;15.48;99.46
60170;BME280;46042;49.444;6.862;2023-07-31T05:31:41;98451.50;;;15.56;99.58
60170;BME280;46042;49.444;6.862;2023-07-31T05:34:08;98449.66;;;15.57;97.85
60170;BME280;46042;49.444;6.862;2023-07-31T05:36:34;98453.03;;;15.59;97.05
60170;BME280;46042;49.444;6.862;2023-07-31T05:39:02;98449.94;;;15.63;97.54
60170;BME280;46042;49.444;6.862;2023-07-31T05:41:33;98443.66;;;15.64;98.17
60170;BME280;46042;49.444;6.862;2023-07-31T05:44:01;98443.66;;;15.64;98.14
60170;BME280;46042;49.444;6.862;2023-07-31T05:46:28;98446.47;;;15.63;98.70
60170;BME280;46042;49.444;6.862;2023-07-31T05:48:55;98445.22;;;15.67;100.00
60170;BME280;46042;49.444;6.862;2023-07-31T05:51:22;98446.31;;;15.64;100.00
60170;BME280;46042;49.444;6.862;2023-07-31T05:53:49;98443.66;;;15.64;100.00
60170;BME280;46042;49.444;6.862;2023-07-31T05:56:15;98438.78;;;15.60;99.19
60170;BME280;46042;49.444;6.862;2023-07-31T05:58:42;98444.09;;;15.60;99.26
60170;BME280;46042;49.444;6.862;2023-07-31T06:01:09;98451.38;;;15.68;100.00
60170;BME280;46042;49.444;6.862;2023-07-31T06:03:36;98456.41;;;15.81;99.40
60170;BME280;46042;49.444;6.862;2023-07-31T06:06:03;98446.34;;;15.84;97.10
60170;BME280;46042;49.444;6.862;2023-07-31T06:08:29;98450.56;;;15.97;100.00
60170;BME280;46042;49.444;6.862;2023-07-31T06:10:56;98455.31;;;16.13;100.00
60170;BME280;46042;49.444;6.862;2023-07-31T06:13:23;98444.38;;;16.16;96.71
60170;BME280;46042;49.444;6.862;2023-07-31T06:15:50;98444.78;;;16.21;98.00
60170;BME280;46042;49.444;6.862;2023-07-31T06:18:17;98452.06;;;16.29;99.45
60170;BME280;46042;49.444;6.862;2023-07-31T06:20:44;98450.38;;;16.38;98.42
60170;BME280;46042;49.444;6.862;2023-07-31T06:23:10;98445.72;;;16.40;95.78
60170;BME280;46042;49.444;6.862;2023-07-31T06:25:37;98447.94;;;16.54;98.60
60170;BME280;46042;49.444;6.862;2023-07-31T06:28:04;98442.84;;;16.71;100.00
60170;BME280;46042;49.444;6.862;2023-07-31T06:30:30;98442.56;;;16.74;95.48
60170;BME280;46042;49.444;6.862;2023-07-31T06:32:57;98443.97;;;16.78;94.77
60170;BME280;46042;49.444;6.862;2023-07-31T06:35:24;98435.81;;;16.80;94.82
60170;BME280;46042;49.444;6.862;2023-07-31T06:37:50;98440.78;;;16.92;95.69
60170;BME280;46042;49.444;6.862;2023-07-31T06:40:17;98441.94;;;17.00;95.33
60170;BME280;46042;49.444;6.862;2023-07-31T06:42:45;98426.66;;;17.02;92.98
60170;BME280;46042;49.444;6.862;2023-07-31T06:45:12;98418.47;;;17.13;92.59
60170;BME280;46042;49.444;6.862;2023-07-31T06:47:39;98434.78;;;17.28;95.83
60170;BME280;46042;49.444;6.862;2023-07-31T06:50:06;98425.25;;;17.26;92.92
60170;BME280;46042;49.444;6.862;2023-07-31T06:52:33;98421.34;;;17.20;90.19
60170;BME280;46042;49.444;6.862;2023-07-31T06:55:02;98419.09;;;17.25;91.16
60170;BME280;46042;49.444;6.862;2023-07-31T06:57:30;98421.75;;;17.25;90.10
60170;BME280;46042;49.444;6.862;2023-07-31T06:59:57;98416.50;;;17.15;87.97
60170;BME280;46042;49.444;6.862;2023-07-31T07:02:24;98418.56;;;17.22;89.85
60170;BME280;46042;49.444;6.862;2023-07-31T07:04:51;98419.53;;;17.20;90.29
60170;BME280;46042;49.444;6.862;2023-07-31T07:07:17;98408.59;;;17.24;90.19
60170;BME280;46042;49.444;6.862;2023-07-31T07:09:45;98416.88;;;17.20;90.63
60170;BME280;46042;49.444;6.862;2023-07-31T07:12:11;98413.84;;;17.15;89.21
60170;BME280;46042;49.444;6.862;2023-07-31T07:14:38;98411.31;;;17.14;90.19
60170;BME280;46042;49.444;6.862;2023-07-31T07:17:05;98402.81;;;17.28;90.29
60170;BME280;46042;49.444;6.862;2023-07-31T07:19:32;98403.44;;;17.40;90.37
60170;BME280;46042;49.444;6.862;2023-07-31T07:21:59;98399.56;;;17.53;89.19
60170;BME280;46042;49.444;6.862;2023-07-31T07:24:28;98402.69;;;17.66;90.75
60170;BME280;46042;49.444;6.862;2023-07-31T07:26:55;98392.97;;;17.75;90.49
60170;BME280;46042;49.444;6.862;2023-07-31T07:29:23;98386.22;;;17.89;88.93
60170;BME280;46042;49.444;6.862;2023-07-31T07:31:50;98400.38;;;18.08;89.08
60170;BME280;46042;49.444;6.862;2023-07-31T07:34:16;98392.75;;;18.13;87.29
60170;BME280;46042;49.444;6.862;2023-07-31T07:36:44;98384.72;;;18.04;85.73
60170;BME280;46042;49.444;6.862;2023-07-31T07:39:11;98394.19;;;18.25;84.58
60170;BME280;46042;49.444;6.862;2023-07-31T07:41:37;98399.97;;;18.47;84.28
60170;BME280;46042;49.444;6.862;2023-07-31T07:44:05;98397.81;;;18.51;82.80
60170;BME280;46042;49.444;6.862;2023-07-31T07:46:32;98395.72;;;18.62;84.60
60170;BME280;46042;49.444;6.862;2023-07-31T07:48:58;98391.50;;;18.52;80.17
60170;BME280;46042;49.444;6.862;2023-07-31T07:51:25;98386.22;;;18.60;84.88
60170;BME280;46042;49.444;6.862;2023-07-31T07:53:52;98386.47;;;18.48;80.27
60170;BME280;46042;49.444;6.862;2023-07-31T07:56:19;98381.16;;;18.48;82.44
60170;BME280;46042;49.444;6.862;2023-07-31T07:58:48;98381.94;;;18.41;81.65
60170;BME280;46042;49.444;6.862;2023-07-31T08:01:16;98382.88;;;18.31;79.48
60170;BME280;46042;49.444;6.862;2023-07-31T08:03:43;98394.28;;;18.42;80.25
60170;BME280;46042;49.444;6.862;2023-07-31T08:06:10;98389.16;;;18.48;82.42
60170;BME280;46042;49.444;6.862;2023-07-31T08:08:37;98383.84;;;18.57;79.97
60170;BME280;46042;49.444;6.862;2023-07-31T08:11:04;98378.88;;;18.62;78.03
60170;BME280;46042;49.444;6.862;2023-07-31T08:13:31;98368.47;;;18.85;76.83
60170;BME280;46042;49.444;6.862;2023-07-31T08:15:58;98372.19;;;19.60;80.00
60170;BME280;46042;49.444;6.862;2023-07-31T08:18:31;98380.19;;;19.85;73.57
60170;BME280;46042;49.444;6.862;2023-07-31T08:21:04;98375.00;;;20.17;74.92
60170;BME280;46042;49.444;6.862;2023-07-31T08:23:37;98369.81;;;20.24;72.16
60170;BME280;46042;49.444;6.862;2023-07-31T08:26:04;98366.13;;;20.25;76.25
60170;BME280;46042;49.444;6.862;2023-07-31T08:28:40;98357.47;;;19.73;72.42
60170;BME280;46042;49.444;6.862;2023-07-31T08:31:08;98357.84;;;19.95;70.85
60170;BME280;46042;49.444;6.862;2023-07-31T08:33:38;98348.28;;;20.09;70.27
60170;BME280;46042;49.444;6.862;2023-07-31T08:36:07;98337.91;;;20.14;72.58
60170;BME280;46042;49.444;6.862;2023-07-31T08:38:36;98323.03;;;20.11;72.18
60170;BME280;46042;49.444;6.862;2023-07-31T08:41:13;98323.50;;;20.31;70.06
60170;BME280;46042;49.444;6.862;2023-07-31T08:43:45;98335.28;;;20.54;70.58
60170;BME280;46042;49.444;6.862;2023-07-31T08:46:26;98320.78;;;20.88;76.11
60170;BME280;46042;49.444;6.862;2023-07-31T08:49:00;98322.59;;;21.19;69.03
60170;BME280;46042;49.444;6.862;2023-07-31T08:51:30;98327.84;;;20.72;65.90
60170;BME280;46042;49.444;6.862;2023-07-31T08:54:14;98327.50;;;21.39;68.97
60170;BME280;46042;49.444;6.862;2023-07-31T08:56:46;98317.88;;;20.98;66.70
60170;BME280;46042;49.444;6.862;2023-07-31T08:59:14;98333.31;;;20.87;69.68
60170;BME280;46042;49.444;6.862;2023-07-31T09:01:49;98326.28;;;20.86;69.31
60170;BME280;46042;49.444;6.862;2023-07-31T09:04:19;98323.31;;;20.81;70.44
60170;BME280;46042;49.444;6.862;2023-07-31T09:06:49;98319.59;;;20.91;70.01
60170;BME280;46042;49.444;6.862;2023-07-31T09:09:24;98325.56;;;21.01;68.02
60170;BME280;46042;49.444;6.862;2023-07-31T09:11:52;98320.28;;;20.84;69.37
60170;BME280;46042;49.444;6.862;2023-07-31T09:14:26;98326.09;;;21.20;69.48
60170;BME280;46042;49.444;6.862;2023-07-31T09:17:04;98321.09;;;21.86;66.47
60170;BME280;46042;49.444;6.862;2023-07-31T09:19:38;98335.22;;;21.80;67.35
60170;BME280;46042;49.444;6.862;2023-07-31T09:22:15;98343.03;;;21.20;64.76
60170;BME280;46042;49.444;6.862;2023-07-31T09:24:42;98328.94;;;20.95;65.47
60170;BME280;46042;49.444;6.862;2023-07-31T09:27:09;98328.72;;;20.65;65.49
60170;BME280;46042;49.444;6.862;2023-07-31T09:29:36;98322.25;;;20.51;65.85
60170;BME280;46042;49.444;6.862;2023-07-31T09:32:15;98320.38;;;20.99;66.22
60170;BME280;46042;49.444;6.862;2023-07-31T09:34:55;98315.78;;;20.85;65.20
60170;BME280;46042;49.444;6.862;2023-07-31T09:37:24;98332.34;;;20.80;66.50
60170;BME280;46042;49.444;6.862;2023-07-31T09:39:55;98331.81;;;20.45;66.06
60170;BME280;46042;49.444;6.862;2023-07-31T09:42:32;98321.19;;;20.20;67.75
60170;BME280;46042;49.444;6.862;2023-07-31T09:45:12;98314.31;;;20.26;67.42
60170;BME280;46042;49.444;6.862;2023-07-31T09:47:47;98323.53;;;20.15;65.57
60170;BME280;46042;49.444;6.862;2023-07-31T09:50:24;98324.19;;;20.25;66.11
60170;BME280;46042;49.444;6.862;2023-07-31T09:53:08;98322.78;;;20.46;66.18
60170;BME280;46042;49.444;6.862;2023-07-31T09:55:37;98316.78;;;20.36;66.32
60170;BME280;46042;49.444;6.862;2023-07-31T09:58:09;98312.53;;;20.58;67.99
60170;BME280;46042;49.444;6.862;2023-07-31T10:00:42;98315.34;;;20.65;67.53
60170;BME280;46042;49.444;6.862;2023-07-31T10:03:20;98309.19;;;20.56;67.49
60170;BME280;46042;49.444;6.862;2023-07-31T10:05:50;98309.84;;;20.58;67.62
60170;BME280;46042;49.444;6.862;2023-07-31T10:08:23;98307.03;;;20.51;67.10
60170;BME280;46042;49.444;6.862;2023-07-31T10:11:11;98306.81;;;20.61;66.48
60170;BME280;46042;49.444;6.862;2023-07-31T10:13:49;98320.69;;;20.65;65.38
60170;BME280;46042;49.444;6.862;2023-07-31T10:16:25;98308.84;;;20.59;66.87
60170;BME280;46042;49.444;6.862;2023-07-31T10:18:56;98297.41;;;20.82;68.45
60170;BME280;46042;49.444;6.862;2023-07-31T10:21:34;98300.72;;;20.84;67.52
60170;BME280;46042;49.444;6.862;2023-07-31T10:24:05;98302.69;;;20.90;68.90
60170;BME280;46042;49.444;6.862;2023-07-31T10:26:37;98307.88;;;20.92;67.05
60170;BME280;46042;49.444;6.862;2023-07-31T10:29:09;98317.56;;;20.53;63.69
60170;BME280;46042;49.444;6.862;2023-07-31T10:31:44;98307.81;;;20.68;66.76
60170;BME280;46042;49.444;6.862;2023-07-31T10:34:17;98307.81;;;20.60;65.24
60170;BME280;46042;49.444;6.862;2023-07-31T10:36:47;98307.09;;;20.35;64.18
60170;BME280;46042;49.444;6.862;2023-07-31T10:39:40;98306.06;;;20.36;64.40
60170;BME280;46042;49.444;6.862;2023-07-31T10:42:13;98301.94;;;20.25;64.08
60170;BME280;46042;49.444;6.862;2023-07-31T10:44:46;98311.81;;;20.24;66.97
60170;BME280;46042;49.444;6.862;2023-07-31T10:47:15;98296.28;;;20.11;65.62
60170;BME280;46042;49.444;6.862;2023-07-31T10:49:49;98308.00;;;20.10;65.87
60170;BME280;46042;49.444;6.862;2023-07-31T10:52:26;98301.81;;;20.10;66.21
60170;BME280;46042;49.444;6.862;2023-07-31T10:55:16;98305.50;;;20.09;68.37
60170;BME280;46042;49.444;6.862;2023-07-31T10:57:47;98307.88;;;20.03;69.10
60170;BME280;46042;49.444;6.862;2023-07-31T11:00:19;98307.72;;;19.97;67.87
60170;BME280;46042;49.444;6.862;2023-07-31T11:03:00;98304.69;;;20.00;68.47
60170;BME280;46042;49.444;6.862;2023-07-31T11:08:33;98306.81;;;20.21;67.83
60170;BME280;46042;49.444;6.862;2023-07-31T11:11:08;98305.47;;;20.17;67.99
60170;BME280;46042;49.444;6.862;2023-07-31T11:13:53;98300.81;;;20.11;66.79
60170;BME280;46042;49.444;6.862;2023-07-31T11:16:22;98307.81;;;20.20;70.69
60170;BME280;46042;49.444;6.862;2023-07-31T11:18:56;98305.66;;;20.15;69.13
60170;BME280;46042;49.444;6.862;2023-07-31T11:24:38;98285.28;;;20.06;67.67
60170;BME280;46042;49.444;6.862;2023-07-31T11:27:08;98296.34;;;19.95;67.72
60170;BME280;46042;49.444;6.862;2023-07-31T11:29:37;98290.50;;;19.74;67.54
60170;BME280;46042;49.444;6.862;2023-07-31T11:32:16;98286.13;;;19.90;69.38
60170;BME280;46042;49.444;6.862;2023-07-31T11:34:59;98285.78;;;19.85;69.10
60170;BME280;46042;49.444;6.862;2023-07-31T11:37:46;98290.47;;;19.99;68.69
60170;BME280;46042;49.444;6.862;2023-07-31T11:40:18;98286.13;;;19.98;67.42
60170;BME280;46042;49.444;6.862;2023-07-31T11:42:55;98286.47;;;20.03;68.67
60170;BME280;46042;49.444;6.862;2023-07-31T11:45:27;98274.44;;;19.83;69.12
60170;BME280;46042;49.444;6.862;2023-07-31T11:48:05;98278.66;;;19.69;68.88
60170;BME280;46042;49.444;6.862;2023-07-31T11:50:38;98291.34;;;19.67;70.17
60170;BME280;46042;49.444;6.862;2023-07-31T11:53:10;98295.53;;;19.69;70.93
60170;BME280;46042;49.444;6.862;2023-07-31T11:55:54;98279.63;;;19.76;72.49
60170;BME280;46042;49.444;6.862;2023-07-31T11:58:24;98290.34;;;19.68;71.94
60170;BME280;46042;49.444;6.862;2023-07-31T12:00:58;98282.31;;;19.68;69.99
60170;BME280;46042;49.444;6.862;2023-07-31T12:03:41;98277.28;;;19.73;71.34
60170;BME280;46042;49.444;6.862;2023-07-31T12:06:13;98282.28;;;19.76;70.25
60170;BME280;46042;49.444;6.862;2023-07-31T12:09:13;98286.00;;;19.58;70.01
60170;BME280;46042;49.444;6.862;2023-07-31T12:11:48;98282.66;;;19.56;72.66
60170;BME280;46042;49.444;6.862;2023-07-31T12:14:26;98270.31;;;19.55;72.07
60170;BME280;46042;49.444;6.862;2023-07-31T12:17:07;98276.00;;;19.52;72.70
60170;BME280;46042;49.444;6.862;2023-07-31T12:19:39;98272.63;;;19.58;73.23
60170;BME280;46042;49.444;6.862;2023-07-31T12:22:22;98268.47;;;19.72;73.59
60170;BME280;46042;49.444;6.862;2023-07-31T12:24:54;98263.13;;;19.72;71.52
60170;BME280;46042;49.444;6.862;2023-07-31T12:27:23;98263.28;;;19.96;75.32
60170;BME280;46042;49.444;6.862;2023-07-31T12:29:56;98271.56;;;20.09;72.58
60170;BME280;46042;49.444;6.862;2023-07-31T12:32:29;98277.13;;;19.83;72.96
60170;BME280;46042;49.444;6.862;2023-07-31T12:35:01;98283.16;;;19.76;75.09
60170;BME280;46042;49.444;6.862;2023-07-31T12:37:35;98277.84;;;19.52;72.45
60170;BME280;46042;49.444;6.862;2023-07-31T12:40:04;98286.16;;;19.48;73.58
60170;BME280;46042;49.444;6.862;2023-07-31T12:42:38;98291.03;;;19.45;73.01
60170;BME280;46042;49.444;6.862;2023-07-31T12:45:05;98290.84;;;19.63;74.92
60170;BME280;46042;49.444;6.862;2023-07-31T12:47:38;98300.53;;;19.56;75.14
60170;BME280;46042;49.444;6.862;2023-07-31T12:50:06;98296.50;;;19.27;77.93
60170;BME280;46042;49.444;6.862;2023-07-31T12:52:35;98290.50;;;19.25;79.64
60170;BME280;46042;49.444;6.862;2023-07-31T12:55:04;98284.66;;;19.38;79.06
60170;BME280;46042;49.444;6.862;2023-07-31T12:57:35;98278.66;;;19.11;80.13
60170;BME280;46042;49.444;6.862;2023-07-31T13:00:12;98269.81;;;19.10;82.40
60170;BME280;46042;49.444;6.862;2023-07-31T13:02:43;98258.63;;;19.15;81.27
60170;BME280;46042;49.444;6.862;2023-07-31T13:05:14;98255.47;;;19.19;86.12
60170;BME280;46042;49.444;6.862;2023-07-31T13:07:41;98252.28;;;19.49;86.43
60170;BME280;46042;49.444;6.862;2023-07-31T13:10:08;98240.44;;;19.52;81.01
60170;BME280;46042;49.444;6.862;2023-07-31T13:12:35;98219.88;;;19.52;78.27
60170;BME280;46042;49.444;6.862;2023-07-31T13:15:07;98215.84;;;19.73;79.28
60170;BME280;46042;49.444;6.862;2023-07-31T13:17:39;98217.47;;;19.90;80.93
60170;BME280;46042;49.444;6.862;2023-07-31T13:20:06;98218.66;;;19.96;78.58
60170;BME280;46042;49.444;6.862;2023-07-31T13:22:34;98218.28;;;20.08;78.56
60170;BME280;46042;49.444;6.862;2023-07-31T13:25:01;98197.09;;;20.38;84.11